This is the latest recevied weather packets stored in our database for station/object W5GGH. If no packets are shown the sender has not sent any weather packets the latest 1 day(s).
| Time | Temp. | Humidity | Pressure | Rain* | Wind** | Luminosity | Snow |
|---|---|---|---|---|---|---|---|
| 1778064673 | 14.44° C | 74% | 1028.6 hPa | 0 mm | 2.68 m/s, 28° | 0 W/m² | - |
| 1778064371 | 14.44° C | 74% | 1028.5 hPa | 0 mm | 0.89 m/s, 359° | 0 W/m² | - |
| 1778064068 | 14.44° C | 74% | 1028.4 hPa | 0 mm | 1.34 m/s, 349° | 0 W/m² | - |
| 1778063765 | 14.44° C | 73% | 1028.3 hPa | 0 mm | 1.34 m/s, 348° | 0 W/m² | - |
| 1778063462 | 14.44° C | 74% | 1028.2 hPa | 0 mm | 1.34 m/s, 87° | 0 W/m² | - |
| 1778063160 | 14.44° C | 74% | 1028 hPa | 0 mm | 1.34 m/s, 20° | 0 W/m² | - |
| 1778062857 | 14.44° C | 74% | 1027.7 hPa | 0 mm | 2.68 m/s, 10° | 0 W/m² | - |
| 1778062554 | 14.44° C | 74% | 1028 hPa | 0 mm | 1.34 m/s, 12° | 0 W/m² | - |
| 1778062251 | 14.44° C | 74% | 1027.6 hPa | 0 mm | 2.24 m/s, 14° | 0 W/m² | - |
| 1778061949 | 14.44° C | 74% | 1027.6 hPa | 0 mm | 0.89 m/s, 52° | 0 W/m² | - |
| 1778061647 | 14.44° C | 74% | 1027.8 hPa | 0 mm | 2.24 m/s, 19° | 0 W/m² | - |
| 1778061346 | 14.44° C | 74% | 1027.6 hPa | 0 mm | 2.68 m/s, 16° | 0 W/m² | - |
| 1778061042 | 15° C | 75% | 1027.5 hPa | 0 mm | 1.79 m/s, 339° | 0 W/m² | - |
| 1778060739 | 15° C | 75% | 1027.4 hPa | 0 mm | 1.34 m/s, 356° | 0 W/m² | - |
| 1778060437 | 15° C | 75% | 1027.3 hPa | 0 mm | 0.89 m/s, 52° | 0 W/m² | - |
| 1778060135 | 15° C | 74% | 1027.5 hPa | 0 mm | 1.34 m/s, 17° | 0 W/m² | - |
| 1778059832 | 15° C | 75% | 1027.5 hPa | 0 mm | 1.79 m/s, 28° | 0 W/m² | - |
| 1778059530 | 15° C | 74% | 1027.3 hPa | 0 mm | 0.89 m/s, 31° | 0 W/m² | - |
| 1778059227 | 15° C | 74% | 1027.6 hPa | 0 mm | 0.89 m/s, 340° | 0 W/m² | - |
| 1778058925 | 15° C | 74% | 1027.3 hPa | 0 mm | 2.68 m/s, 3° | 0 W/m² | - |
| 1778058622 | 15° C | 74% | 1027.3 hPa | 0 mm | 0.89 m/s, 350° | 0 W/m² | - |
| 1778058320 | 15° C | 75% | 1027.2 hPa | 0 mm | 1.79 m/s, 14° | 0 W/m² | - |
| 1778058016 | 15° C | 75% | 1027.5 hPa | 0 mm | 1.79 m/s, 38° | 0 W/m² | - |
| 1778057713 | 15.56° C | 75% | 1027.2 hPa | 0 mm | 2.68 m/s, 22° | 0 W/m² | - |
| 1778057409 | 15.56° C | 75% | 1027.3 hPa | 0 mm | 2.68 m/s, 38° | 0 W/m² | - |
* Rain latest hour (hover to see other rain measurements)
** Current wind speed in m/s (hover to see current wind gust speed)